createdAt,value
2022-09-22T00:01:33.261Z,91.60
2022-09-22T00:04:03.723Z,91.70
2022-09-22T00:06:36.464Z,91.60
2022-09-22T00:09:05.167Z,91.60
2022-09-22T00:11:38.970Z,91.60
2022-09-22T00:14:16.725Z,91.70
2022-09-22T00:16:57.564Z,91.70
2022-09-22T00:19:35.388Z,91.70
2022-09-22T00:22:04.193Z,91.80
2022-09-22T00:24:32.060Z,91.90
2022-09-22T00:26:59.966Z,91.90
2022-09-22T00:29:29.287Z,91.80
2022-09-22T00:31:56.861Z,91.90
2022-09-22T00:34:26.852Z,91.80
2022-09-22T00:36:54.007Z,91.80
2022-09-22T00:39:21.828Z,91.80
2022-09-22T00:41:51.952Z,91.80
2022-09-22T00:44:44.434Z,91.80
2022-09-22T00:47:39.909Z,91.70
2022-09-22T00:50:24.228Z,91.80
2022-09-22T00:52:59.858Z,91.80
2022-09-22T00:55:50.745Z,91.70
2022-09-22T00:58:23.732Z,91.80
2022-09-22T01:00:50.639Z,91.60
2022-09-22T01:03:25.063Z,91.50
2022-09-22T01:06:01.387Z,91.60
2022-09-22T01:08:29.817Z,91.70
2022-09-22T01:10:57.932Z,91.60
2022-09-22T01:13:45.919Z,91.60
2022-09-22T01:16:37.592Z,91.70
2022-09-22T01:19:40.316Z,92.10
2022-09-22T01:22:50.203Z,91.90
2022-09-22T01:25:40.934Z,91.90
2022-09-22T01:29:07.071Z,91.80
2022-09-22T01:32:11.253Z,91.90
2022-09-22T01:35:02.562Z,91.80
2022-09-22T01:38:07.071Z,91.60
2022-09-22T01:40:57.636Z,91.70
2022-09-22T01:43:57.133Z,91.80
2022-09-22T01:46:57.885Z,91.90
2022-09-22T01:49:26.783Z,91.80
2022-09-22T01:52:00.590Z,91.70
2022-09-22T01:54:41.628Z,91.70
2022-09-22T01:57:21.743Z,91.90
2022-09-22T01:59:55.471Z,91.90
2022-09-22T02:02:34.359Z,91.70
2022-09-22T02:05:06.276Z,91.70
2022-09-22T02:07:38.876Z,91.60
2022-09-22T02:10:10.979Z,91.70
2022-09-22T02:12:38.520Z,91.80
2022-09-22T02:15:26.723Z,91.80
2022-09-22T02:17:57.873Z,91.80
2022-09-22T02:20:26.120Z,91.80
2022-09-22T02:22:54.480Z,91.90
2022-09-22T02:25:24.739Z,91.90
2022-09-22T02:27:55.116Z,92.00
2022-09-22T02:30:23.113Z,92.00
2022-09-22T02:32:52.992Z,92.00
2022-09-22T02:35:20.767Z,92.10
2022-09-22T02:37:56.511Z,92.20
2022-09-22T02:40:31.814Z,92.30
2022-09-22T02:43:24.732Z,92.30
2022-09-22T02:46:05.254Z,92.40
2022-09-22T02:48:42.730Z,92.40
2022-09-22T02:51:09.954Z,92.40
2022-09-22T02:53:37.319Z,92.40
2022-09-22T02:56:04.675Z,92.40
2022-09-22T02:58:31.825Z,92.50
2022-09-22T03:00:58.827Z,92.60
2022-09-22T03:03:25.729Z,92.50
2022-09-22T03:05:52.613Z,92.40
2022-09-22T03:08:19.479Z,92.50
2022-09-22T03:10:46.422Z,92.60
2022-09-22T03:13:17.583Z,92.60
2022-09-22T03:15:46.037Z,92.50
2022-09-22T03:18:13.501Z,92.50
2022-09-22T03:20:40.664Z,92.60
2022-09-22T03:23:07.808Z,92.60
2022-09-22T03:25:34.996Z,92.70
2022-09-22T03:28:02.280Z,92.60
2022-09-22T03:30:29.254Z,92.70
2022-09-22T03:32:56.151Z,92.80
2022-09-22T03:35:23.105Z,92.90
2022-09-22T03:37:50.048Z,93.10
2022-09-22T03:40:17.118Z,93.20
2022-09-22T03:42:44.848Z,93.30
2022-09-22T03:45:12.730Z,93.40
2022-09-22T03:47:39.687Z,93.40
2022-09-22T03:50:07.258Z,93.70
2022-09-22T03:52:34.734Z,93.80
2022-09-22T03:55:03.033Z,94.00
2022-09-22T03:57:30.222Z,94.00
2022-09-22T03:59:57.105Z,94.10
2022-09-22T04:02:24.032Z,94.20
2022-09-22T04:04:50.941Z,94.30
2022-09-22T04:07:17.988Z,94.40
2022-09-22T04:09:44.926Z,94.40
2022-09-22T04:12:11.848Z,94.50
2022-09-22T04:14:38.904Z,94.60
2022-09-22T04:17:05.962Z,94.60
2022-09-22T04:19:35.640Z,94.60
2022-09-22T04:22:03.914Z,94.60
2022-09-22T04:24:30.881Z,94.70
2022-09-22T04:27:18.716Z,94.60
2022-09-22T04:29:44.619Z,94.50
2022-09-22T04:32:11.612Z,94.50
2022-09-22T04:34:38.645Z,94.50
2022-09-22T04:37:05.678Z,94.40
2022-09-22T04:39:32.705Z,94.50
2022-09-22T04:41:59.575Z,94.40
2022-09-22T04:44:26.475Z,94.20
2022-09-22T04:46:53.337Z,94.30
2022-09-22T04:49:20.198Z,94.40
2022-09-22T04:51:47.154Z,94.30
2022-09-22T04:54:14.900Z,94.20
2022-09-22T04:56:44.884Z,94.30
2022-09-22T04:59:11.982Z,94.30
2022-09-22T05:01:39.019Z,94.30
2022-09-22T05:04:05.992Z,94.30
2022-09-22T05:06:32.860Z,94.30
2022-09-22T05:08:59.786Z,94.30
2022-09-22T05:11:26.736Z,94.30
2022-09-22T05:13:53.601Z,94.30
2022-09-22T05:16:20.541Z,94.20
2022-09-22T05:18:50.124Z,94.30
2022-09-22T05:21:18.801Z,94.40
2022-09-22T05:23:46.682Z,94.40
2022-09-22T05:26:13.679Z,94.40
2022-09-22T05:28:40.903Z,94.30
2022-09-22T05:31:07.879Z,94.30
2022-09-22T05:33:34.747Z,94.40
2022-09-22T05:36:01.895Z,94.40
2022-09-22T05:38:28.923Z,94.40
2022-09-22T05:40:55.829Z,94.50
2022-09-22T05:43:22.759Z,94.50
2022-09-22T05:45:49.945Z,94.60
2022-09-22T05:48:16.903Z,94.60
2022-09-22T05:50:45.266Z,94.70
2022-09-22T05:53:13.350Z,94.90
2022-09-22T05:55:41.260Z,95.00
2022-09-22T05:58:13.918Z,95.10
2022-09-22T06:00:41.666Z,95.30
2022-09-22T06:03:08.965Z,95.40
2022-09-22T06:05:39.149Z,95.50
2022-09-22T06:08:07.785Z,95.80
2022-09-22T06:10:37.132Z,95.90
2022-09-22T06:13:07.422Z,96.10
2022-09-22T06:15:36.046Z,96.20
2022-09-22T06:18:07.523Z,96.30
2022-09-22T06:20:35.604Z,96.40
2022-09-22T06:23:02.498Z,96.40
2022-09-22T06:25:29.581Z,96.60
2022-09-22T06:28:05.738Z,96.80
2022-09-22T06:30:40.112Z,96.80
2022-09-22T06:33:11.125Z,96.60
2022-09-22T06:35:40.430Z,96.70
2022-09-22T06:38:09.304Z,96.60
2022-09-22T06:40:36.461Z,96.80
2022-09-22T06:43:15.060Z,96.90
2022-09-22T06:45:44.904Z,96.90
2022-09-22T06:48:12.243Z,96.80
2022-09-22T06:50:40.961Z,96.90
2022-09-22T06:53:13.778Z,96.90
2022-09-22T06:55:43.859Z,96.90
2022-09-22T06:58:12.317Z,96.80
2022-09-22T07:00:41.840Z,96.70
2022-09-22T07:03:26.345Z,96.70
2022-09-22T07:05:57.407Z,96.80
2022-09-22T07:08:25.630Z,96.60
2022-09-22T07:11:11.645Z,96.70
2022-09-22T07:13:42.870Z,96.80
2022-09-22T07:16:16.309Z,96.70
2022-09-22T07:18:46.068Z,96.70
2022-09-22T07:21:16.762Z,96.70
2022-09-22T07:23:44.234Z,96.60
2022-09-22T07:26:17.077Z,96.60
2022-09-22T07:28:46.859Z,96.50
2022-09-22T07:31:15.349Z,96.40
2022-09-22T07:33:44.583Z,96.20
2022-09-22T07:36:19.520Z,96.10
2022-09-22T07:38:52.363Z,96.00
2022-09-22T07:41:22.912Z,95.90
2022-09-22T07:43:52.650Z,95.70
2022-09-22T07:46:20.270Z,95.50
2022-09-22T07:48:47.964Z,95.30
2022-09-22T07:51:20.616Z,95.10
2022-09-22T07:54:07.324Z,95.00
2022-09-22T07:56:43.369Z,94.80
2022-09-22T07:59:15.160Z,94.70
2022-09-22T08:01:44.895Z,94.60
2022-09-22T08:04:16.634Z,94.60
2022-09-22T08:06:49.460Z,94.40
2022-09-22T08:09:18.254Z,94.30
2022-09-22T08:11:48.565Z,94.00
2022-09-22T08:14:17.365Z,93.90
2022-09-22T08:16:44.377Z,93.90
2022-09-22T08:19:13.297Z,94.00
2022-09-22T08:21:48.289Z,93.70
2022-09-22T08:24:22.505Z,93.30
2022-09-22T08:26:52.462Z,93.30
2022-09-22T08:29:20.199Z,93.10
2022-09-22T08:31:47.494Z,93.10
2022-09-22T08:34:16.591Z,93.00
2022-09-22T08:36:46.215Z,92.70
2022-09-22T08:39:13.325Z,92.80
2022-09-22T08:41:55.267Z,92.60
2022-09-22T08:44:29.160Z,92.00
2022-09-22T08:47:01.476Z,91.90
2022-09-22T08:49:58.895Z,91.90
2022-09-22T08:52:54.374Z,91.70
2022-09-22T08:55:26.708Z,91.70
2022-09-22T08:58:35.074Z,91.70
2022-09-22T09:01:42.482Z,91.70
2022-09-22T09:04:44.231Z,91.50
2022-09-22T09:07:41.713Z,91.10
2022-09-22T09:10:53.007Z,91.00
2022-09-22T09:14:01.343Z,90.70
2022-09-22T09:16:50.158Z,90.20
2022-09-22T09:19:42.876Z,90.00
2022-09-22T09:22:25.380Z,90.00
2022-09-22T09:25:24.952Z,90.10
2022-09-22T09:28:01.373Z,89.90
2022-09-22T09:30:41.285Z,88.20
2022-09-22T09:33:40.812Z,88.60
2022-09-22T09:38:54.305Z,86.40
2022-09-22T09:41:31.763Z,85.60
2022-09-22T09:44:00.550Z,85.50
2022-09-22T09:47:19.516Z,86.20
2022-09-22T09:49:52.647Z,83.20
2022-09-22T09:52:20.185Z,85.10
2022-09-22T09:54:47.526Z,85.40
2022-09-22T09:57:17.302Z,82.30
2022-09-22T10:00:32.465Z,82.00
2022-09-22T10:03:43.782Z,79.50
2022-09-22T10:06:11.856Z,80.40
2022-09-22T10:08:46.265Z,80.20
2022-09-22T10:11:15.145Z,75.90
2022-09-22T10:13:43.754Z,76.50
2022-09-22T10:16:28.846Z,76.30
2022-09-22T10:18:58.640Z,75.60
2022-09-22T10:21:28.081Z,75.30
2022-09-22T10:23:58.320Z,76.50
2022-09-22T10:26:29.262Z,74.70
2022-09-22T10:29:18.254Z,74.50
2022-09-22T10:32:16.300Z,72.60
2022-09-22T10:34:50.500Z,74.50
2022-09-22T10:37:25.547Z,74.90
2022-09-22T10:39:57.571Z,73.90
2022-09-22T10:42:45.533Z,72.80
2022-09-22T10:45:15.751Z,73.50
2022-09-22T10:48:03.995Z,73.00
2022-09-22T10:51:02.315Z,72.40
2022-09-22T10:54:09.840Z,72.30
2022-09-22T10:56:46.519Z,72.20
2022-09-22T10:59:41.551Z,72.80
2022-09-22T11:02:48.976Z,72.20
2022-09-22T11:05:43.563Z,72.70
2022-09-22T11:08:35.923Z,72.20
2022-09-22T11:11:51.760Z,70.30
2022-09-22T11:14:56.406Z,69.90
2022-09-22T11:17:54.124Z,68.50
2022-09-22T11:20:40.047Z,68.60
2022-09-22T11:24:12.198Z,69.70
2022-09-22T11:27:01.187Z,70.20
2022-09-22T11:30:10.723Z,70.50
2022-09-22T11:33:15.057Z,71.20
2022-09-22T11:36:15.343Z,68.50
2022-09-22T11:39:00.483Z,69.20
2022-09-22T11:41:58.851Z,66.60
2022-09-22T11:44:56.570Z,67.00
2022-09-22T11:47:42.171Z,67.90
2022-09-22T11:50:30.803Z,68.40
2022-09-22T11:53:26.888Z,68.60
2022-09-22T11:56:14.372Z,68.20
2022-09-22T11:58:44.523Z,68.10
2022-09-22T12:01:19.277Z,69.60
2022-09-22T12:04:14.458Z,66.80
2022-09-22T12:06:44.982Z,67.00
2022-09-22T12:09:35.837Z,68.20
2022-09-22T12:12:05.623Z,66.90
2022-09-22T12:14:33.362Z,65.20
2022-09-22T12:17:29.879Z,65.50
2022-09-22T12:20:42.552Z,65.20
2022-09-22T12:23:47.561Z,63.80
2022-09-22T12:26:31.568Z,60.60
2022-09-22T12:29:13.756Z,60.60
2022-09-22T12:31:44.190Z,63.10
2022-09-22T12:34:30.147Z,63.20
2022-09-22T12:37:09.262Z,59.90
2022-09-22T12:39:44.628Z,61.90
2022-09-22T12:42:35.644Z,62.50
2022-09-22T12:45:28.890Z,60.50
2022-09-22T12:47:57.596Z,60.30
2022-09-22T12:50:24.327Z,61.60
2022-09-22T12:52:51.236Z,61.00
2022-09-22T12:55:28.501Z,59.70
2022-09-22T12:58:01.204Z,58.50
2022-09-22T13:00:41.013Z,58.60
2022-09-22T13:03:26.196Z,58.40
2022-09-22T13:06:21.071Z,57.80
2022-09-22T13:08:54.032Z,58.20
2022-09-22T13:12:11.972Z,57.60
2022-09-22T13:14:57.638Z,57.60
2022-09-22T13:17:44.678Z,57.60
2022-09-22T13:20:32.750Z,58.20
2022-09-22T13:23:12.883Z,58.70
2022-09-22T13:25:42.444Z,57.90
2022-09-22T13:28:09.200Z,59.10
2022-09-22T13:30:38.752Z,59.80
2022-09-22T13:33:06.175Z,59.30
2022-09-22T13:35:39.031Z,56.90
2022-09-22T13:38:07.233Z,56.60
2022-09-22T13:40:34.922Z,57.10
2022-09-22T13:43:08.829Z,57.40
2022-09-22T13:45:38.299Z,57.60
2022-09-22T13:48:14.487Z,56.60
2022-09-22T13:50:55.584Z,55.60
2022-09-22T13:53:22.691Z,56.20
2022-09-22T13:55:51.777Z,55.70
2022-09-22T13:58:36.630Z,55.40
2022-09-22T14:01:20.092Z,55.90
2022-09-22T14:03:50.059Z,56.60
2022-09-22T14:06:22.178Z,54.90
2022-09-22T14:08:52.581Z,55.40
2022-09-22T14:11:24.725Z,55.80
2022-09-22T14:13:59.856Z,54.20
2022-09-22T14:16:55.166Z,54.40
2022-09-22T14:19:29.341Z,55.10
2022-09-22T14:21:59.256Z,56.50
2022-09-22T14:24:27.531Z,56.00
2022-09-22T14:27:03.797Z,55.70
2022-09-22T14:29:34.777Z,56.40
2022-09-22T14:32:39.870Z,54.90
2022-09-22T14:35:18.237Z,55.70
2022-09-22T14:37:50.744Z,55.00
2022-09-22T14:40:24.309Z,55.20
2022-09-22T14:43:09.315Z,55.20
2022-09-22T14:45:37.247Z,55.00
2022-09-22T14:48:12.949Z,55.90
2022-09-22T14:51:06.080Z,55.70
2022-09-22T14:53:41.011Z,56.70
2022-09-22T14:56:29.502Z,56.70
2022-09-22T14:59:01.922Z,56.80
2022-09-22T15:01:51.226Z,56.10
2022-09-22T15:04:23.238Z,56.10
2022-09-22T15:06:56.584Z,56.70
2022-09-22T15:09:29.222Z,56.50
2022-09-22T15:12:03.440Z,56.60
2022-09-22T15:14:44.214Z,57.10
2022-09-22T15:17:58.187Z,55.00
2022-09-22T15:20:38.633Z,55.60
2022-09-22T15:23:18.394Z,54.70
2022-09-22T15:25:46.484Z,55.70
2022-09-22T15:28:17.530Z,55.90
2022-09-22T15:30:48.501Z,56.90
2022-09-22T15:33:16.426Z,57.20
2022-09-22T15:35:46.860Z,57.30
2022-09-22T15:38:24.053Z,57.90
2022-09-22T15:40:51.421Z,58.40
2022-09-22T15:43:20.719Z,59.10
2022-09-22T15:45:56.722Z,59.70
2022-09-22T15:48:39.465Z,60.30
2022-09-22T15:51:13.876Z,61.20
2022-09-22T15:53:41.820Z,62.20
2022-09-22T15:56:19.016Z,62.60
2022-09-22T15:58:46.607Z,63.50
2022-09-22T16:01:18.026Z,63.70
2022-09-22T16:03:45.944Z,64.10
2022-09-22T16:06:16.673Z,64.40
2022-09-22T16:08:48.080Z,64.90
2022-09-22T16:11:29.525Z,65.30
2022-09-22T16:14:03.518Z,65.50
2022-09-22T16:16:33.059Z,65.00
2022-09-22T16:19:00.590Z,64.60
2022-09-22T16:21:37.127Z,64.20
2022-09-22T16:24:08.251Z,63.70
2022-09-22T16:26:38.187Z,63.80
2022-09-22T16:29:06.785Z,64.00
2022-09-22T16:31:33.953Z,64.10
2022-09-22T16:34:03.367Z,64.50
2022-09-22T16:36:33.433Z,65.00
2022-09-22T16:39:04.087Z,65.40
2022-09-22T16:41:33.385Z,65.60
2022-09-22T16:44:01.695Z,65.90
2022-09-22T16:46:30.590Z,66.30
2022-09-22T16:49:16.155Z,66.40
2022-09-22T16:51:47.451Z,67.30
2022-09-22T16:54:14.607Z,67.00
2022-09-22T16:56:47.197Z,67.30
2022-09-22T16:59:22.494Z,67.60
2022-09-22T17:01:50.313Z,68.00
2022-09-22T17:04:21.413Z,68.00
2022-09-22T17:06:49.229Z,68.30
2022-09-22T17:09:17.615Z,68.60
2022-09-22T17:11:48.065Z,68.80
2022-09-22T17:14:18.346Z,70.00
2022-09-22T17:16:49.750Z,70.50
2022-09-22T17:19:20.475Z,70.10
2022-09-22T17:21:50.940Z,70.40
2022-09-22T17:24:19.326Z,70.80
2022-09-22T17:26:50.232Z,71.00
2022-09-22T17:29:23.350Z,71.50
2022-09-22T17:31:51.476Z,71.70
2022-09-22T17:34:18.631Z,72.00
2022-09-22T17:36:45.563Z,72.10
2022-09-22T17:39:12.621Z,72.50
2022-09-22T17:41:46.876Z,72.80
2022-09-22T17:44:19.598Z,73.20
2022-09-22T17:47:06.255Z,73.40
2022-09-22T17:49:51.919Z,73.50
2022-09-22T17:52:37.586Z,73.70
2022-09-22T17:55:20.259Z,73.80
2022-09-22T17:57:47.494Z,74.50
2022-09-22T18:00:21.096Z,74.30
2022-09-22T18:02:50.504Z,75.20
2022-09-22T18:05:21.851Z,75.20
2022-09-22T18:07:53.550Z,75.80
2022-09-22T18:10:20.803Z,76.30
2022-09-22T18:12:47.683Z,76.40
2022-09-22T18:15:17.155Z,76.90
2022-09-22T18:17:44.751Z,77.30
2022-09-22T18:20:15.657Z,77.60
2022-09-22T18:22:47.797Z,78.20
2022-09-22T18:25:19.403Z,78.20
2022-09-22T18:27:48.354Z,78.50
2022-09-22T18:30:19.265Z,78.90
2022-09-22T18:32:49.862Z,78.90
2022-09-22T18:35:17.186Z,79.30
2022-09-22T18:37:44.118Z,79.50
2022-09-22T18:40:12.456Z,80.20
2022-09-22T18:42:39.701Z,81.40
2022-09-22T18:45:07.251Z,82.20
2022-09-22T18:47:41.854Z,82.70
2022-09-22T18:50:10.088Z,82.10
2022-09-22T18:52:37.334Z,82.10
2022-09-22T18:55:04.882Z,82.30
2022-09-22T18:57:31.750Z,82.60
2022-09-22T19:00:00.241Z,82.70
2022-09-22T19:02:27.566Z,83.30
2022-09-22T19:04:54.610Z,83.10
2022-09-22T19:07:44.056Z,84.40
2022-09-22T19:10:20.407Z,84.70
2022-09-22T19:12:48.156Z,84.90
2022-09-22T19:15:18.961Z,85.40
2022-09-22T19:17:49.251Z,85.90
2022-09-22T19:20:24.936Z,85.60
2022-09-22T19:22:52.925Z,85.50
2022-09-22T19:25:21.761Z,85.40
2022-09-22T19:27:50.131Z,85.50
2022-09-22T19:30:21.799Z,86.70
2022-09-22T19:32:50.014Z,87.10
2022-09-22T19:35:16.898Z,87.40
2022-09-22T19:37:44.825Z,87.90
2022-09-22T19:40:18.772Z,88.30
2022-09-22T19:42:47.018Z,88.80
2022-09-22T19:45:14.554Z,89.00
2022-09-22T19:47:41.615Z,89.20
2022-09-22T19:50:09.111Z,89.30
2022-09-22T19:52:37.708Z,89.60
2022-09-22T19:55:11.381Z,89.70
2022-09-22T19:57:41.537Z,89.80
2022-09-22T20:00:25.558Z,89.40
2022-09-22T20:03:00.834Z,89.00
2022-09-22T20:05:36.781Z,88.70
2022-09-22T20:08:15.603Z,88.80
2022-09-22T20:10:44.332Z,88.90
2022-09-22T20:13:30.461Z,88.80
2022-09-22T20:15:58.768Z,89.30
2022-09-22T20:18:26.247Z,89.60
2022-09-22T20:20:54.400Z,89.40
2022-09-22T20:23:22.826Z,90.00
2022-09-22T20:25:51.227Z,90.10
2022-09-22T20:28:18.638Z,90.10
2022-09-22T20:30:45.672Z,90.10
2022-09-22T20:33:24.174Z,89.90
2022-09-22T20:35:55.356Z,90.10
2022-09-22T20:38:22.232Z,89.60
2022-09-22T20:40:49.673Z,89.70
2022-09-22T20:43:16.603Z,90.00
2022-09-22T20:45:44.214Z,90.00
2022-09-22T20:48:18.877Z,90.10
2022-09-22T20:50:55.382Z,90.20
2022-09-22T20:53:22.420Z,90.20
2022-09-22T20:56:01.184Z,90.30
2022-09-22T20:58:32.256Z,90.40
2022-09-22T21:01:00.679Z,90.60
2022-09-22T21:03:28.782Z,91.00
2022-09-22T21:06:00.503Z,91.20
2022-09-22T21:08:46.753Z,91.10
2022-09-22T21:11:16.044Z,90.90
2022-09-22T21:13:43.507Z,90.90
2022-09-22T21:16:13.710Z,90.80
2022-09-22T21:18:40.868Z,90.80
2022-09-22T21:21:08.610Z,90.70
2022-09-22T21:23:35.494Z,90.70
2022-09-22T21:26:07.740Z,90.60
2022-09-22T21:28:34.619Z,90.70
2022-09-22T21:31:07.311Z,90.90
2022-09-22T21:33:35.808Z,90.90
2022-09-22T21:36:13.667Z,90.80
2022-09-22T21:38:49.380Z,90.80
2022-09-22T21:41:21.937Z,90.80
2022-09-22T21:43:50.556Z,91.10
2022-09-22T21:46:24.908Z,91.10
2022-09-22T21:48:58.653Z,91.00
2022-09-22T21:51:26.017Z,91.00
2022-09-22T21:53:54.447Z,90.90
2022-09-22T21:56:24.855Z,91.10
2022-09-22T21:58:54.204Z,91.10
2022-09-22T22:01:27.721Z,91.00
2022-09-22T22:03:57.571Z,90.90
2022-09-22T22:06:35.585Z,90.90
2022-09-22T22:09:20.770Z,90.90
2022-09-22T22:11:49.633Z,90.90
2022-09-22T22:14:19.417Z,90.90
2022-09-22T22:16:52.712Z,91.00
2022-09-22T22:19:22.501Z,91.20
2022-09-22T22:21:50.986Z,91.30
2022-09-22T22:24:42.341Z,91.50
2022-09-22T22:27:11.024Z,91.50
2022-09-22T22:29:38.866Z,91.60
2022-09-22T22:32:09.267Z,91.60
2022-09-22T22:34:36.461Z,91.50
2022-09-22T22:37:04.713Z,91.40
2022-09-22T22:39:32.534Z,91.40
2022-09-22T22:41:59.442Z,91.30
2022-09-22T22:44:26.317Z,91.20
2022-09-22T22:46:53.218Z,91.20
2022-09-22T22:49:20.253Z,91.30
2022-09-22T22:51:49.138Z,91.30
2022-09-22T22:54:16.141Z,91.40
2022-09-22T22:56:45.059Z,91.40
2022-09-22T22:59:14.856Z,91.30
2022-09-22T23:01:44.171Z,91.40
2022-09-22T23:04:11.629Z,91.30
2022-09-22T23:06:43.749Z,91.20
2022-09-22T23:09:14.971Z,91.20
2022-09-22T23:11:42.985Z,91.10
2022-09-22T23:14:11.959Z,91.10
2022-09-22T23:16:45.533Z,91.10
2022-09-22T23:19:15.841Z,91.20
2022-09-22T23:21:42.843Z,91.10
2022-09-22T23:24:09.792Z,91.20
2022-09-22T23:26:37.504Z,91.20
2022-09-22T23:29:06.020Z,91.20
2022-09-22T23:31:33.294Z,91.20
2022-09-22T23:34:00.263Z,91.20
2022-09-22T23:36:28.874Z,91.10
2022-09-22T23:38:58.351Z,91.20
2022-09-22T23:41:25.403Z,91.10
2022-09-22T23:43:52.284Z,91.10
2022-09-22T23:46:20.818Z,91.00
2022-09-22T23:48:48.067Z,91.00
2022-09-22T23:51:15.348Z,90.90
2022-09-22T23:53:42.568Z,91.00
2022-09-22T23:56:09.726Z,90.90
2022-09-22T23:58:38.040Z,90.90
